Time;durP1;ratioP1;P1;durP2;ratioP2;P2;SDS_P1;SDS_P2;PMS_P1;PMS_P2;Temp;Humidity;BMP_temperature;BMP_pressure;BME280_temperature;BME280_humidity;BME280_pressure;Samples;Min_cycle;Max_cycle;Signal;HPM_P1;HPM_P2
2021/10/18 00:00:16;;;;;;;9.63;5.78;;;12.30;99.90;;;;;;4126316;28;20029;-73
2021/10/18 00:02:17;;;;;;;7.88;4.82;;;12.20;99.90;;;;;;4129562;28;20113;-72
2021/10/18 00:04:18;;;;;;;10.23;5.35;;;12.20;99.90;;;;;;4131385;28;20497;-72
2021/10/18 00:06:18;;;;;;;6.80;4.90;;;12.20;99.90;;;;;;4125532;28;20042;-73
2021/10/18 00:08:19;;;;;;;6.65;4.70;;;12.20;99.90;;;;;;4133700;28;20100;-73
2021/10/18 00:10:19;;;;;;;10.60;5.20;;;12.20;99.90;;;;;;4125157;28;20049;-73
2021/10/18 00:12:20;;;;;;;7.43;5.05;;;12.20;99.90;;;;;;4134065;28;20679;-73
2021/10/18 00:14:21;;;;;;;8.60;4.95;;;12.20;99.90;;;;;;4126432;28;20121;-72
2021/10/18 00:16:22;;;;;;;9.95;4.47;;;12.20;99.90;;;;;;4134714;28;20116;-73
2021/10/18 00:18:23;;;;;;;6.40;4.47;;;12.10;99.90;;;;;;4130337;28;20097;-73
2021/10/18 00:20:23;;;;;;;8.93;5.57;;;12.10;99.90;;;;;;4122880;28;20042;-73
2021/10/18 00:22:24;;;;;;;9.88;5.53;;;12.10;99.90;;;;;;4128264;28;20038;-73
2021/10/18 00:24:25;;;;;;;8.00;4.72;;;12.00;99.90;;;;;;4129282;28;20685;-73
2021/10/18 00:26:25;;;;;;;7.47;4.97;;;12.00;99.90;;;;;;4134504;28;20352;-73
2021/10/18 00:28:28;;;;;;;8.40;4.47;;;12.00;99.90;;;;;;4139141;28;20038;-73
2021/10/18 00:30:29;;;;;;;5.85;4.43;;;12.00;99.90;;;;;;4130533;28;20045;-73
2021/10/18 00:32:29;;;;;;;7.80;4.80;;;11.90;99.90;;;;;;4132041;28;20030;-72
2021/10/18 00:34:30;;;;;;;7.55;4.68;;;11.90;99.90;;;;;;4132970;28;20728;-72
2021/10/18 00:36:30;;;;;;;6.53;4.63;;;11.90;99.90;;;;;;4136611;28;20103;-73
2021/10/18 00:38:31;;;;;;;7.57;5.10;;;11.90;99.90;;;;;;4133475;28;20035;-73
2021/10/18 00:40:32;;;;;;;6.13;4.20;;;11.80;99.90;;;;;;4129101;28;20034;-72
2021/10/18 00:42:33;;;;;;;5.95;4.68;;;11.80;99.90;;;;;;4125089;28;20087;-72
2021/10/18 00:44:34;;;;;;;7.93;4.88;;;11.80;99.90;;;;;;4134750;28;20909;-73
2021/10/18 00:46:35;;;;;;;7.43;4.68;;;11.80;99.90;;;;;;4135455;28;20476;-73
2021/10/18 00:48:35;;;;;;;8.10;4.82;;;11.70;99.90;;;;;;4133876;28;20058;-73
2021/10/18 00:50:36;;;;;;;7.38;4.65;;;11.70;99.90;;;;;;4132474;28;20030;-73
2021/10/18 00:52:37;;;;;;;7.00;4.60;;;11.70;99.90;;;;;;4125202;28;20168;-72
2021/10/18 00:54:38;;;;;;;6.88;4.50;;;11.70;99.90;;;;;;4116147;28;20054;-73
2021/10/18 00:56:38;;;;;;;7.32;4.63;;;11.70;99.90;;;;;;4131392;28;20046;-73
2021/10/18 00:58:40;;;;;;;6.13;4.43;;;11.60;99.90;;;;;;4130342;28;20076;-73
2021/10/18 01:00:41;;;;;;;6.15;4.68;;;11.70;99.90;;;;;;4130546;28;20031;-73
2021/10/18 01:02:41;;;;;;;6.15;4.50;;;11.60;99.90;;;;;;4132596;28;20056;-72
2021/10/18 01:04:43;;;;;;;7.13;4.53;;;11.60;99.90;;;;;;4144065;28;20045;-72
2021/10/18 01:06:44;;;;;;;7.88;4.55;;;11.60;99.90;;;;;;4143281;28;20470;-73
2021/10/18 01:08:44;;;;;;;7.93;5.30;;;11.60;99.90;;;;;;4127917;28;20042;-73
2021/10/18 01:10:45;;;;;;;6.35;4.30;;;11.60;99.90;;;;;;4127755;28;20041;-73
2021/10/18 01:12:46;;;;;;;8.73;4.80;;;11.50;99.90;;;;;;4129447;28;20037;-73
2021/10/18 01:14:47;;;;;;;6.85;4.68;;;11.60;99.90;;;;;;4126365;28;20441;-72
2021/10/18 01:16:48;;;;;;;6.45;4.13;;;11.50;99.90;;;;;;4128288;28;20065;-73
2021/10/18 01:18:48;;;;;;;8.00;4.82;;;11.50;99.90;;;;;;4129149;28;20054;-73
2021/10/18 01:20:49;;;;;;;6.13;4.30;;;11.50;99.90;;;;;;4130417;28;20488;-72
2021/10/18 01:22:49;;;;;;;6.85;4.40;;;11.50;99.90;;;;;;4135851;28;20034;-73
2021/10/18 01:24:50;;;;;;;7.28;4.72;;;11.40;99.90;;;;;;4136041;28;20506;-73
2021/10/18 01:26:50;;;;;;;8.30;4.78;;;11.40;99.90;;;;;;4137044;28;20037;-72
2021/10/18 01:28:51;;;;;;;11.93;4.97;;;11.40;99.90;;;;;;4126267;28;22164;-72
2021/10/18 01:30:52;;;;;;;8.23;5.10;;;11.40;99.90;;;;;;4125509;28;20066;-72
2021/10/18 01:32:54;;;;;;;7.25;4.78;;;11.40;99.90;;;;;;4138882;28;20045;-73
2021/10/18 01:34:54;;;;;;;10.57;4.50;;;11.40;99.90;;;;;;4127001;28;20034;-73
2021/10/18 01:36:57;;;;;;;9.05;4.90;;;11.40;99.90;;;;;;4126517;28;20077;-72
2021/10/18 01:38:58;;;;;;;8.23;5.47;;;11.40;99.90;;;;;;4131981;28;20042;-73
2021/10/18 01:40:58;;;;;;;7.28;4.95;;;11.40;99.90;;;;;;4133961;28;20497;-72
2021/10/18 01:42:59;;;;;;;7.05;5.05;;;11.40;99.90;;;;;;4128957;28;20038;-72
2021/10/18 01:44:59;;;;;;;9.45;5.30;;;11.40;99.90;;;;;;4129692;28;20126;-72
2021/10/18 01:47:00;;;;;;;8.88;5.53;;;11.40;99.90;;;;;;4129878;28;20173;-72
2021/10/18 01:49:01;;;;;;;9.02;4.97;;;11.40;99.90;;;;;;4131208;28;20356;-72
2021/10/18 01:51:01;;;;;;;7.72;5.15;;;11.40;99.90;;;;;;4123090;28;20042;-73
2021/10/18 01:53:02;;;;;;;7.97;5.10;;;11.40;99.90;;;;;;4126699;28;20045;-72
2021/10/18 01:55:04;;;;;;;6.97;4.65;;;11.40;99.90;;;;;;4138690;28;20037;-73
2021/10/18 01:57:05;;;;;;;7.50;4.25;;;11.40;99.90;;;;;;4135022;28;20263;-72
2021/10/18 01:59:06;;;;;;;8.40;5.10;;;11.40;99.90;;;;;;4136230;28;20445;-73
2021/10/18 02:01:06;;;;;;;8.63;5.57;;;11.40;99.90;;;;;;4130773;28;20089;-73
2021/10/18 02:03:07;;;;;;;8.55;5.28;;;11.30;99.90;;;;;;4139571;28;20103;-72
2021/10/18 02:05:08;;;;;;;6.65;4.55;;;11.30;99.90;;;;;;4126300;28;20054;-72
2021/10/18 02:07:08;;;;;;;6.85;4.80;;;11.40;99.90;;;;;;4126254;28;20049;-73
2021/10/18 02:09:09;;;;;;;10.50;5.85;;;11.30;99.90;;;;;;4130214;28;20046;-72
2021/10/18 02:11:10;;;;;;;10.27;5.50;;;11.30;99.90;;;;;;4134600;28;20663;-73
2021/10/18 02:13:11;;;;;;;7.82;4.70;;;11.30;99.90;;;;;;4134079;28;20057;-73
2021/10/18 02:15:12;;;;;;;8.48;5.20;;;11.30;99.90;;;;;;4133865;28;20035;-73
2021/10/18 02:17:13;;;;;;;8.73;5.05;;;11.30;99.90;;;;;;4137260;28;20058;-73
2021/10/18 02:19:13;;;;;;;9.90;5.68;;;11.30;99.90;;;;;;4130862;28;20104;-73
2021/10/18 02:21:14;;;;;;;8.00;5.30;;;11.30;99.90;;;;;;4130376;28;20085;-73
2021/10/18 02:23:14;;;;;;;11.18;5.55;;;11.20;99.90;;;;;;4135339;28;20113;-73
2021/10/18 02:25:15;;;;;;;10.70;5.97;;;11.20;99.90;;;;;;4137832;28;20042;-73
2021/10/18 02:27:15;;;;;;;10.95;5.70;;;11.20;99.90;;;;;;4127703;28;20166;-72
2021/10/18 02:29:16;;;;;;;8.77;5.53;;;11.00;99.90;;;;;;4130994;28;20038;-73
2021/10/18 02:31:17;;;;;;;9.38;5.55;;;10.90;99.90;;;;;;4134816;28;20034;-72
2021/10/18 02:33:18;;;;;;;8.40;4.93;;;11.00;99.90;;;;;;4137502;28;20038;-73
2021/10/18 02:35:18;;;;;;;8.50;5.43;;;10.90;99.90;;;;;;4131082;28;20036;-73
2021/10/18 02:37:19;;;;;;;8.73;5.53;;;10.90;99.90;;;;;;4130841;28;20442;-72
2021/10/18 02:39:19;;;;;;;8.95;5.53;;;10.90;99.90;;;;;;4131224;28;20522;-73
2021/10/18 02:41:20;;;;;;;7.45;5.55;;;10.90;99.90;;;;;;4134931;28;20050;-73
2021/10/18 02:43:21;;;;;;;9.23;6.10;;;10.90;99.90;;;;;;4133719;28;20635;-73
2021/10/18 02:45:21;;;;;;;13.70;5.95;;;10.80;99.90;;;;;;4131630;28;20061;-73
2021/10/18 02:47:22;;;;;;;15.48;5.93;;;10.80;99.90;;;;;;4133332;28;20073;-73
2021/10/18 02:49:23;;;;;;;10.55;5.60;;;10.70;99.90;;;;;;4137770;28;20103;-73
2021/10/18 02:51:23;;;;;;;9.75;5.88;;;10.70;99.90;;;;;;4135933;28;20421;-72
2021/10/18 02:53:24;;;;;;;11.40;6.22;;;10.70;99.90;;;;;;4130414;28;20027;-73
2021/10/18 02:55:24;;;;;;;9.38;6.43;;;10.70;99.90;;;;;;4137097;28;20042;-72
2021/10/18 02:57:25;;;;;;;10.75;6.45;;;10.70;99.90;;;;;;4139814;28;20049;-73
2021/10/18 02:59:25;;;;;;;11.38;5.85;;;10.70;99.90;;;;;;4136161;28;20058;-72
2021/10/18 03:01:26;;;;;;;9.75;6.50;;;10.60;99.90;;;;;;4136852;28;20042;-73
2021/10/18 03:03:27;;;;;;;11.32;6.72;;;10.60;99.90;;;;;;4126665;28;20129;-73
2021/10/18 03:05:28;;;;;;;13.02;6.88;;;10.60;99.90;;;;;;4130478;28;20034;-73
2021/10/18 03:07:29;;;;;;;11.30;6.70;;;10.60;99.90;;;;;;4133572;28;20022;-72
2021/10/18 03:09:29;;;;;;;11.38;6.90;;;10.60;99.90;;;;;;4133409;28;20032;-72
2021/10/18 03:11:30;;;;;;;13.60;7.43;;;10.60;99.90;;;;;;4131032;28;20091;-72
2021/10/18 03:13:31;;;;;;;9.48;5.97;;;10.60;99.90;;;;;;4138093;28;20035;-73
2021/10/18 03:15:32;;;;;;;12.32;7.32;;;10.60;99.90;;;;;;4138427;28;20115;-72
2021/10/18 03:17:32;;;;;;;12.25;7.57;;;10.60;99.90;;;;;;4127535;28;20112;-72
2021/10/18 03:19:33;;;;;;;8.60;6.13;;;10.60;99.90;;;;;;4129388;28;20034;-73
2021/10/18 03:21:33;;;;;;;11.93;7.57;;;10.60;99.90;;;;;;4129347;28;20394;-72
2021/10/18 03:23:34;;;;;;;9.88;6.82;;;10.60;99.90;;;;;;4134122;28;20669;-72
2021/10/18 03:25:35;;;;;;;12.02;7.00;;;10.50;99.90;;;;;;4134412;28;20026;-73
2021/10/18 03:27:36;;;;;;;16.20;7.38;;;10.50;99.90;;;;;;4125980;28;20057;-72
2021/10/18 03:29:37;;;;;;;9.02;6.28;;;10.50;99.90;;;;;;4130296;28;20046;-72
2021/10/18 03:31:37;;;;;;;10.55;7.18;;;10.50;99.90;;;;;;4130315;28;20085;-72
2021/10/18 03:33:39;;;;;;;9.02;6.07;;;10.50;99.90;;;;;;4127932;28;20031;-72
2021/10/18 03:35:40;;;;;;;10.05;6.50;;;10.50;99.90;;;;;;4134966;28;20055;-73
2021/10/18 03:37:41;;;;;;;12.50;6.60;;;10.50;99.90;;;;;;4130764;28;20066;-73
2021/10/18 03:39:41;;;;;;;11.88;6.47;;;10.50;99.90;;;;;;4127971;28;20025;-73
2021/10/18 03:41:42;;;;;;;9.90;6.25;;;10.50;99.90;;;;;;4127594;28;20077;-73
2021/10/18 03:43:42;;;;;;;10.88;7.10;;;10.50;99.90;;;;;;4133954;28;20029;-73
2021/10/18 03:45:43;;;;;;;9.85;6.60;;;10.50;99.90;;;;;;4124811;28;20494;-73
2021/10/18 03:47:44;;;;;;;10.43;6.90;;;10.50;99.90;;;;;;4130359;28;20041;-73
2021/10/18 03:49:44;;;;;;;11.43;6.32;;;10.50;99.90;;;;;;4133736;28;20026;-72
2021/10/18 03:51:45;;;;;;;7.43;5.68;;;10.50;99.90;;;;;;4135264;28;20022;-73
2021/10/18 03:53:46;;;;;;;9.70;6.20;;;10.50;99.90;;;;;;4136956;28;20370;-73
2021/10/18 03:55:46;;;;;;;16.45;8.05;;;10.50;99.90;;;;;;4133105;28;20026;-73
2021/10/18 03:57:47;;;;;;;11.68;6.90;;;10.50;99.90;;;;;;4131413;28;20096;-72
2021/10/18 03:59:47;;;;;;;10.68;7.15;;;10.50;99.90;;;;;;4131583;28;20025;-72
2021/10/18 04:01:48;;;;;;;13.65;8.15;;;10.50;99.90;;;;;;4127086;28;20042;-73
2021/10/18 04:03:49;;;;;;;11.05;8.20;;;10.50;99.90;;;;;;4126343;28;20097;-73
2021/10/18 04:05:49;;;;;;;12.52;7.82;;;10.50;99.90;;;;;;4137419;28;20068;-73
2021/10/18 04:07:50;;;;;;;12.82;8.25;;;10.50;99.90;;;;;;4134331;28;20513;-72
2021/10/18 04:09:51;;;;;;;13.57;8.55;;;10.50;99.90;;;;;;4129452;28;20031;-72
2021/10/18 04:11:51;;;;;;;12.20;8.52;;;10.40;99.90;;;;;;4133582;28;20057;-73
2021/10/18 04:13:52;;;;;;;15.30;9.25;;;10.50;99.90;;;;;;4127728;28;20410;-73
2021/10/18 04:15:53;;;;;;;14.70;9.13;;;10.40;99.90;;;;;;4133025;28;20894;-73
2021/10/18 04:17:53;;;;;;;15.25;9.27;;;10.40;99.90;;;;;;4125903;28;20027;-72
2021/10/18 04:19:54;;;;;;;11.77;7.70;;;10.40;99.90;;;;;;4138112;28;20018;-72
2021/10/18 04:21:55;;;;;;;10.35;7.63;;;10.40;99.90;;;;;;4130651;28;20030;-73
2021/10/18 04:23:55;;;;;;;15.38;8.63;;;10.40;99.90;;;;;;4126650;28;20105;-73
2021/10/18 04:25:56;;;;;;;16.83;8.35;;;10.40;99.90;;;;;;4137809;28;20029;-73
2021/10/18 04:27:56;;;;;;;13.40;8.82;;;10.40;99.90;;;;;;4139189;28;20033;-73
2021/10/18 04:29:57;;;;;;;12.50;7.85;;;10.40;99.90;;;;;;4132372;28;20054;-73
2021/10/18 04:31:58;;;;;;;12.45;7.97;;;10.30;99.90;;;;;;4137493;28;20022;-73
2021/10/18 04:34:00;;;;;;;12.75;7.05;;;10.30;99.90;;;;;;4138378;28;20041;-72
2021/10/18 04:36:00;;;;;;;11.27;6.80;;;10.30;99.90;;;;;;4127415;28;20031;-73
2021/10/18 04:38:01;;;;;;;12.95;7.70;;;10.20;99.90;;;;;;4125094;28;20049;-73
2021/10/18 04:40:03;;;;;;;9.30;6.55;;;10.20;99.90;;;;;;4129118;28;20384;-73
2021/10/18 04:42:03;;;;;;;10.60;6.82;;;10.10;99.90;;;;;;4128099;28;20598;-72
2021/10/18 04:44:04;;;;;;;10.70;6.68;;;10.10;99.90;;;;;;4131068;28;20065;-73
2021/10/18 04:46:05;;;;;;;9.45;6.57;;;10.10;99.90;;;;;;4138649;28;20029;-73
2021/10/18 04:48:05;;;;;;;11.25;6.20;;;10.10;99.90;;;;;;4127693;28;20069;-73
2021/10/18 04:50:06;;;;;;;10.57;6.20;;;10.10;99.90;;;;;;4132392;28;20050;-72
2021/10/18 04:52:07;;;;;;;9.88;5.85;;;10.10;99.90;;;;;;4134450;28;20030;-73
2021/10/18 04:54:08;;;;;;;10.60;6.38;;;10.10;99.90;;;;;;4125582;28;20454;-73
2021/10/18 04:56:08;;;;;;;9.20;5.97;;;10.10;99.90;;;;;;4137555;28;20478;-73
2021/10/18 04:58:09;;;;;;;16.25;6.80;;;10.10;99.90;;;;;;4124155;28;20118;-73
2021/10/18 05:00:10;;;;;;;11.93;6.07;;;10.00;99.90;;;;;;4134909;28;20030;-72
2021/10/18 05:02:11;;;;;;;13.15;6.50;;;10.00;99.90;;;;;;4129397;28;20127;-73
2021/10/18 05:04:11;;;;;;;9.23;5.63;;;9.90;99.90;;;;;;4132646;28;20022;-72
2021/10/18 05:06:12;;;;;;;9.80;6.13;;;9.90;99.90;;;;;;4134657;28;20069;-72
2021/10/18 05:08:13;;;;;;;11.00;6.22;;;9.90;99.90;;;;;;4138372;28;20038;-73
2021/10/18 05:10:14;;;;;;;10.88;6.70;;;9.90;99.90;;;;;;4129752;28;20033;-73
2021/10/18 05:12:15;;;;;;;11.50;6.75;;;9.90;99.90;;;;;;4133427;28;20077;-73
2021/10/18 05:14:15;;;;;;;9.98;6.20;;;9.90;99.90;;;;;;4134378;28;20030;-72
2021/10/18 05:16:16;;;;;;;12.35;5.90;;;9.80;99.90;;;;;;4133732;28;20514;-73
2021/10/18 05:18:16;;;;;;;9.82;6.13;;;9.80;99.90;;;;;;4124637;28;20023;-73
2021/10/18 05:20:17;;;;;;;9.35;5.95;;;9.80;99.90;;;;;;4130586;28;20168;-73
2021/10/18 05:22:18;;;;;;;10.40;5.75;;;9.80;99.90;;;;;;4130248;28;20722;-73
2021/10/18 05:24:19;;;;;;;10.00;6.03;;;9.80;99.90;;;;;;4129709;28;20030;-72
2021/10/18 05:26:19;;;;;;;11.70;6.95;;;9.80;99.90;;;;;;4132515;28;20113;-72
2021/10/18 05:28:20;;;;;;;9.80;5.95;;;9.70;99.90;;;;;;4136382;28;20077;-73
2021/10/18 05:30:24;;;;;;;12.13;6.10;;;9.60;99.90;;;;;;4134825;28;20034;-73
2021/10/18 05:32:25;;;;;;;9.88;6.25;;;9.60;99.90;;;;;;4137873;28;20636;-74
2021/10/18 05:34:25;;;;;;;11.38;6.22;;;9.60;99.90;;;;;;4141947;28;20027;-74
2021/10/18 05:36:26;;;;;;;11.68;6.18;;;9.50;99.90;;;;;;4127851;28;20041;-73
2021/10/18 05:38:27;;;;;;;9.50;6.15;;;9.50;99.90;;;;;;4133437;28;20041;-73
2021/10/18 05:40:28;;;;;;;11.00;6.13;;;9.50;99.90;;;;;;4135787;28;20526;-74
2021/10/18 05:42:28;;;;;;;13.05;6.47;;;9.40;99.90;;;;;;4130739;28;20028;-73
2021/10/18 05:44:29;;;;;;;12.15;6.63;;;9.40;99.90;;;;;;4134933;28;20142;-73
2021/10/18 05:46:29;;;;;;;12.13;6.35;;;9.30;99.90;;;;;;4136164;28;20072;-74
2021/10/18 05:48:32;;;;;;;9.88;6.45;;;9.40;99.90;;;;;;4134741;28;20038;-73
2021/10/18 05:50:40;;;;;;;9.55;6.22;;;9.40;99.90;;;;;;4135600;28;20037;-73
2021/10/18 05:52:40;;;;;;;9.45;5.82;;;9.40;99.90;;;;;;4137551;28;20038;-73
2021/10/18 05:54:41;;;;;;;10.68;6.20;;;9.40;99.90;;;;;;4144281;28;20058;-74
2021/10/18 05:56:41;;;;;;;10.80;5.75;;;9.40;99.90;;;;;;4143361;28;20160;-73
2021/10/18 05:58:42;;;;;;;11.93;5.57;;;9.40;99.90;;;;;;4134521;28;20038;-73
2021/10/18 06:00:44;;;;;;;9.40;5.70;;;9.40;99.90;;;;;;4134018;28;20050;-73
2021/10/18 06:02:45;;;;;;;7.68;5.47;;;9.50;99.90;;;;;;4137714;28;20462;-73
2021/10/18 06:04:47;;;;;;;9.90;5.47;;;9.50;99.90;;;;;;4136661;28;20026;-73
2021/10/18 06:06:47;;;;;;;13.05;6.10;;;9.50;99.90;;;;;;4139506;28;20026;-74
2021/10/18 06:08:49;;;;;;;7.55;5.13;;;9.50;99.90;;;;;;4130093;28;20069;-74
2021/10/18 06:10:50;;;;;;;9.48;5.55;;;9.50;99.90;;;;;;4140609;28;20030;-74
2021/10/18 06:12:50;;;;;;;5.68;4.38;;;9.60;99.90;;;;;;4136437;28;20073;-73
2021/10/18 06:14:51;;;;;;;10.38;5.85;;;9.60;99.90;;;;;;4134090;28;20451;-74
2021/10/18 06:16:51;;;;;;;7.93;5.18;;;9.60;99.90;;;;;;4141562;28;20057;-76
2021/10/18 06:18:52;;;;;;;9.73;5.68;;;9.70;99.90;;;;;;4139635;28;20053;-74
2021/10/18 06:20:54;;;;;;;11.23;6.13;;;9.70;99.90;;;;;;4135356;28;20034;-73
2021/10/18 06:22:55;;;;;;;12.52;6.07;;;9.70;99.90;;;;;;4143249;28;20045;-74
2021/10/18 06:24:55;;;;;;;8.98;5.65;;;9.70;99.90;;;;;;4136644;28;20023;-74
2021/10/18 06:26:56;;;;;;;9.02;5.35;;;9.70;99.90;;;;;;4129224;28;20023;-73
2021/10/18 06:28:56;;;;;;;9.88;6.35;;;9.70;99.90;;;;;;4128865;28;20494;-73
2021/10/18 06:30:57;;;;;;;7.97;5.15;;;9.70;99.90;;;;;;4135812;28;20034;-73
2021/10/18 06:32:58;;;;;;;10.20;5.60;;;9.70;99.90;;;;;;4141216;28;20517;-72
2021/10/18 06:34:59;;;;;;;12.90;5.07;;;9.70;99.90;;;;;;4133336;28;20045;-72
2021/10/18 06:37:00;;;;;;;8.63;5.40;;;9.70;99.90;;;;;;4138729;28;20033;-73
2021/10/18 06:39:00;;;;;;;10.32;4.88;;;9.70;99.90;;;;;;4132735;28;20111;-73
2021/10/18 06:41:01;;;;;;;8.57;5.40;;;9.70;99.90;;;;;;4131933;28;20465;-73
2021/10/18 06:43:01;;;;;;;9.10;5.60;;;9.70;99.90;;;;;;4130010;28;20457;-72
2021/10/18 06:45:02;;;;;;;9.60;5.25;;;9.70;99.90;;;;;;4133174;28;20474;-73
2021/10/18 06:47:03;;;;;;;7.65;5.57;;;9.70;99.90;;;;;;4134612;28;20034;-72
2021/10/18 06:49:04;;;;;;;11.68;5.78;;;9.70;99.90;;;;;;4138393;28;20042;-72
2021/10/18 06:51:05;;;;;;;8.55;5.82;;;9.70;99.90;;;;;;4135696;28;20022;-72
2021/10/18 06:53:10;;;;;;;8.35;5.35;;;9.70;99.90;;;;;;4137394;28;20077;-72
2021/10/18 06:55:11;;;;;;;9.15;5.55;;;9.80;99.90;;;;;;4135631;28;20034;-73
2021/10/18 06:57:12;;;;;;;10.27;5.78;;;9.80;99.90;;;;;;4138352;28;20022;-72
2021/10/18 06:59:14;;;;;;;10.35;5.95;;;9.80;99.90;;;;;;4132328;28;20041;-72
2021/10/18 07:01:14;;;;;;;12.45;6.65;;;9.80;99.90;;;;;;4134398;28;20847;-73
2021/10/18 07:03:15;;;;;;;11.95;6.85;;;9.70;99.90;;;;;;4136375;28;20160;-72
2021/10/18 07:05:16;;;;;;;12.88;6.43;;;9.70;99.90;;;;;;4136999;28;20696;-73
2021/10/18 07:07:16;;;;;;;9.93;6.40;;;9.60;99.90;;;;;;4134876;28;20030;-73
2021/10/18 07:09:19;;;;;;;15.75;7.13;;;9.60;99.90;;;;;;4132120;28;20165;-73
2021/10/18 07:11:19;;;;;;;11.63;5.82;;;9.60;99.90;;;;;;4136509;28;20034;-73
2021/10/18 07:13:20;;;;;;;12.32;6.35;;;9.70;99.90;;;;;;4133925;28;20040;-73
2021/10/18 07:15:21;;;;;;;12.32;6.53;;;9.70;99.90;;;;;;4131361;28;20030;-73
2021/10/18 07:17:23;;;;;;;15.52;6.47;;;9.70;99.90;;;;;;4132995;28;20228;-73
2021/10/18 07:19:24;;;;;;;8.23;5.55;;;9.70;99.90;;;;;;4133199;28;20077;-73
2021/10/18 07:21:24;;;;;;;10.93;6.80;;;9.70;99.90;;;;;;4131656;28;20042;-73
2021/10/18 07:23:25;;;;;;;14.45;7.75;;;9.80;99.90;;;;;;4131878;28;20263;-73
2021/10/18 07:25:27;;;;;;;13.35;8.52;;;9.80;99.90;;;;;;4139197;28;20038;-72
2021/10/18 07:27:27;;;;;;;11.93;8.13;;;10.00;99.90;;;;;;4126433;28;20045;-74
2021/10/18 07:29:28;;;;;;;10.98;7.13;;;10.00;99.90;;;;;;4135765;28;20041;-73
2021/10/18 07:31:28;;;;;;;10.65;7.28;;;10.20;99.90;;;;;;4114095;28;20038;-73
2021/10/18 07:33:29;;;;;;;13.98;7.57;;;10.40;99.90;;;;;;4140680;28;20117;-73
2021/10/18 07:35:32;;;;;;;14.70;8.10;;;10.60;99.90;;;;;;4138501;28;20033;-73
2021/10/18 07:37:33;;;;;;;15.68;8.32;;;10.70;99.90;;;;;;4138017;28;20088;-73
2021/10/18 07:39:34;;;;;;;15.68;8.10;;;10.80;99.90;;;;;;4137919;28;20042;-73
2021/10/18 07:41:34;;;;;;;11.23;6.93;;;10.80;99.90;;;;;;4137472;28;20041;-74
2021/10/18 07:43:35;;;;;;;10.00;6.18;;;10.90;99.90;;;;;;4138942;28;20033;-73
2021/10/18 07:45:35;;;;;;;11.50;7.20;;;10.90;99.90;;;;;;4132030;28;20792;-73
2021/10/18 07:47:36;;;;;;;9.02;5.47;;;11.00;99.90;;;;;;4137112;28;20120;-73
2021/10/18 07:49:40;;;;;;;11.77;6.82;;;11.10;99.90;;;;;;4135740;28;20062;-73
2021/10/18 07:51:40;;;;;;;11.23;6.43;;;11.20;99.90;;;;;;4112637;28;20963;-73
2021/10/18 07:53:41;;;;;;;17.52;5.97;;;11.30;99.90;;;;;;4133991;28;20048;-73
2021/10/18 07:55:41;;;;;;;11.77;6.68;;;11.50;99.90;;;;;;4136240;28;20030;-73
2021/10/18 07:57:44;;;;;;;12.63;6.68;;;11.60;99.90;;;;;;4142857;28;20065;-72
2021/10/18 07:59:45;;;;;;;;;;;11.70;99.90;;;;;;4128498;28;20084;-73
2021/10/18 08:01:47;;;;;;;11.85;6.28;;;11.80;99.90;;;;;;4134790;28;20019;-73
2021/10/18 08:03:48;;;;;;;9.23;6.45;;;12.00;99.90;;;;;;4138762;28;20034;-73
2021/10/18 08:05:49;;;;;;;11.55;6.50;;;12.10;99.90;;;;;;4132997;28;20458;-73
2021/10/18 08:07:51;;;;;;;12.35;7.00;;;12.20;99.90;;;;;;4140372;28;20084;-73
2021/10/18 08:09:52;;;;;;;13.10;6.63;;;12.30;99.90;;;;;;4139568;28;20038;-73
2021/10/18 08:11:54;;;;;;;11.07;6.80;;;12.30;99.90;;;;;;4134384;28;20426;-73
2021/10/18 08:13:54;;;;;;;12.82;6.40;;;12.40;99.90;;;;;;4140254;28;20034;-73
2021/10/18 08:15:55;;;;;;;14.10;8.27;;;12.50;99.90;;;;;;4137983;28;20076;-73
2021/10/18 08:17:56;;;;;;;11.93;6.53;;;12.50;99.90;;;;;;4137361;28;20038;-73
2021/10/18 08:19:57;;;;;;;10.25;6.35;;;12.60;99.90;;;;;;4138328;28;20036;-72
2021/10/18 08:21:57;;;;;;;10.00;6.22;;;12.70;99.90;;;;;;4133666;28;20173;-73
2021/10/18 08:23:58;;;;;;;13.43;7.15;;;12.70;99.90;;;;;;4141640;28;20030;-72
2021/10/18 08:26:00;;;;;;;11.02;7.35;;;12.70;99.90;;;;;;4120668;28;20026;-73
2021/10/18 08:28:00;;;;;;;11.73;7.20;;;12.70;99.90;;;;;;4141717;28;20049;-73
2021/10/18 08:30:01;;;;;;;12.52;6.93;;;12.80;99.90;;;;;;4141203;28;20440;-72
2021/10/18 08:32:01;;;;;;;18.98;8.43;;;12.80;99.90;;;;;;4139568;28;23815;-72
2021/10/18 08:34:02;;;;;;;13.63;8.50;;;12.70;99.90;;;;;;4140617;28;20046;-72
2021/10/18 08:36:05;;;;;;;11.20;7.20;;;12.70;99.90;;;;;;4143797;28;20040;-73
2021/10/18 08:40:31;;;;;;;12.63;8.52;;;12.70;99.90;;;;;;4136999;28;20034;-73
2021/10/18 08:42:41;;;;;;;15.15;9.15;;;12.70;99.90;;;;;;4140580;28;20129;-72
2021/10/18 08:44:42;;;;;;;14.95;8.90;;;12.70;99.90;;;;;;4137870;28;20331;-73
2021/10/18 08:46:52;;;;;;;17.95;9.52;;;12.70;99.90;;;;;;4119391;28;20107;-73
2021/10/18 08:48:56;;;;;;;16.58;9.40;;;12.60;99.90;;;;;;4142714;28;20645;-72
2021/10/18 08:50:57;;;;;;;15.38;10.07;;;12.70;99.90;;;;;;4132083;28;20043;-72
2021/10/18 08:52:57;;;;;;;14.75;9.27;;;12.80;99.90;;;;;;4145211;28;20125;-72
2021/10/18 08:55:00;;;;;;;16.58;9.93;;;12.80;99.90;;;;;;4138639;28;20508;-72
2021/10/18 08:57:01;;;;;;;17.80;10.55;;;12.90;99.90;;;;;;4137045;28;20096;-72
2021/10/18 08:59:01;;;;;;;18.88;10.75;;;12.90;99.90;;;;;;4138817;28;20054;-72
2021/10/18 09:01:02;;;;;;;15.65;9.85;;;13.00;99.90;;;;;;4138860;28;20045;-72
2021/10/18 09:03:33;;;;;;;23.50;12.15;;;13.00;99.90;;;;;;4140123;28;20082;-72
2021/10/18 09:05:34;;;;;;;20.98;10.45;;;12.90;99.90;;;;;;4133751;28;20038;-72
2021/10/18 09:07:36;;;;;;;15.40;9.50;;;12.90;99.90;;;;;;4138957;28;20489;-72
2021/10/18 09:09:51;;;;;;;15.90;9.63;;;13.00;99.90;;;;;;4143669;28;20069;-72
2021/10/18 09:11:54;;;;;;;19.77;11.07;;;13.00;99.90;;;;;;4135247;28;20117;-73
2021/10/18 09:14:00;;;;;;;18.38;10.73;;;12.90;99.90;;;;;;4135246;28;20402;-72
2021/10/18 09:16:01;;;;;;;11.57;8.23;;;12.90;99.90;;;;;;4141581;28;20039;-72
2021/10/18 09:18:02;;;;;;;14.57;8.05;;;13.00;99.90;;;;;;4146681;28;20059;-72
2021/10/18 09:20:30;;;;;;;16.02;8.55;;;13.00;99.90;;;;;;4143142;28;20092;-72
2021/10/18 09:22:30;;;;;;;17.63;8.20;;;13.10;99.90;;;;;;4121398;28;20041;-72
2021/10/18 09:24:34;;;;;;;12.43;8.07;;;13.10;99.90;;;;;;4113580;28;20561;-72
2021/10/18 09:26:36;;;;;;;14.45;8.00;;;13.10;99.90;;;;;;4112786;28;20037;-72
2021/10/18 09:28:36;;;;;;;13.40;7.63;;;13.20;99.90;;;;;;4113117;28;20064;-72
2021/10/18 09:30:43;;;;;;;13.93;7.78;;;13.20;99.90;;;;;;4090903;28;20385;-72
2021/10/18 09:32:53;;;;;;;14.32;7.68;;;13.30;99.90;;;;;;4108848;28;20038;-72
2021/10/18 09:35:11;;;;;;;9.48;7.20;;;13.40;99.90;;;;;;4093964;28;20267;-72
2021/10/18 09:37:14;;;;;;;16.15;7.63;;;13.40;99.90;;;;;;4106033;28;20449;-72
2021/10/18 09:39:14;;;;;;;;;;;13.50;99.90;;;;;;4099081;28;20399;-72
2021/10/18 09:41:23;;;;;;;13.70;6.95;;;13.50;99.90;;;;;;4114156;28;20162;-72
2021/10/18 09:43:32;;;;;;;10.02;7.07;;;13.60;99.90;;;;;;4106897;28;20179;-72
2021/10/18 09:45:35;;;;;;;10.77;6.93;;;13.70;99.90;;;;;;4112854;28;20141;-72
2021/10/18 10:52:42;;;;;;;11.95;6.75;;;14.40;99.90;;;;;;4136222;28;20026;-72
2021/10/18 10:54:44;;;;;;;13.60;7.07;;;14.50;99.90;;;;;;4136644;28;20073;-72
2021/10/18 10:56:48;;;;;;;15.77;8.30;;;14.50;99.90;;;;;;4137820;28;20031;-72
2021/10/18 10:58:53;;;;;;;12.57;7.85;;;14.60;99.90;;;;;;4102577;28;1061015;-72
2021/10/18 11:00:54;;;;;;;12.63;7.72;;;14.60;99.90;;;;;;4137564;28;20034;-73
2021/10/18 11:03:21;;;;;;;18.40;8.95;;;14.70;99.90;;;;;;4140120;28;20040;-72
2021/10/18 11:05:28;;;;;;;12.15;8.40;;;14.80;99.90;;;;;;4137658;28;20034;-72
2021/10/18 11:07:34;;;;;;;15.02;9.20;;;14.80;99.90;;;;;;4139019;28;20053;-72
2021/10/18 11:09:45;;;;;;;12.27;7.03;;;14.70;99.90;;;;;;4136022;28;20046;-73
2021/10/18 11:11:46;;;;;;;11.45;6.80;;;14.80;99.90;;;;;;4135809;28;20044;-72
2021/10/18 11:13:55;;;;;;;13.82;8.13;;;14.80;99.90;;;;;;4132294;28;20101;-72
2021/10/18 11:15:59;;;;;;;11.73;7.45;;;14.80;99.90;;;;;;4135424;28;20030;-72
2021/10/18 11:18:00;;;;;;;16.58;7.93;;;14.80;99.90;;;;;;4124142;28;20491;-72
2021/10/18 11:20:03;;;;;;;13.02;7.47;;;14.90;99.90;;;;;;4132208;28;20061;-72
2021/10/18 11:22:03;;;;;;;;;;;14.90;99.90;;;;;;4137216;28;20030;-72
2021/10/18 11:24:05;;;;;;;12.35;7.32;;;14.90;99.90;;;;;;4134319;28;20205;-72
2021/10/18 11:26:14;;;;;;;14.13;7.68;;;15.00;99.90;;;;;;4133560;28;20072;-72
2021/10/18 11:28:15;;;;;;;13.80;7.40;;;15.00;99.90;;;;;;4135218;28;20045;-72
2021/10/18 11:30:18;;;;;;;13.48;7.80;;;15.10;99.90;;;;;;4121897;28;20093;-72
2021/10/18 11:32:20;;;;;;;10.70;7.53;;;15.10;99.90;;;;;;4138852;28;20030;-72
2021/10/18 11:34:20;;;;;;;10.25;6.68;;;15.20;99.90;;;;;;4139445;28;20062;-72
2021/10/18 11:36:21;;;;;;;9.70;6.50;;;15.30;99.90;;;;;;4136351;28;20618;-72